Time;durP1;ratioP1;P1;durP2;ratioP2;P2;SDS_P1;SDS_P2;PMS_P1;PMS_P2;Temp;Humidity;BMP_temperature;BMP_pressure;BME280_temperature;BME280_humidity;BME280_pressure;Samples;Min_cycle;Max_cycle;Signal;HPM_P1;HPM_P2
2021/08/03 00:00:04;;;;;;;8.43;6.40;;;;;;;10.70;88.84;100794.81;691970;28;1954;-53
2021/08/03 00:00:33;;;;;;;7.80;6.10;;;;;;;10.67;88.85;100802.69;691731;28;4610;-51
2021/08/03 00:00:57;;;;;;;7.95;6.20;;;;;;;10.64;88.89;100800.94;691582;28;1526;-50
2021/08/03 00:01:18;;;;;;;8.15;6.30;;;;;;;10.59;89.71;100792.22;691752;28;1371;-52
2021/08/03 00:01:40;;;;;;;8.85;6.45;;;;;;;10.59;89.42;100794.00;691507;28;4295;-52
2021/08/03 00:02:02;;;;;;;9.15;6.63;;;;;;;10.59;89.46;100799.22;691341;28;4748;-56
2021/08/03 00:02:24;;;;;;;7.82;6.38;;;;;;;10.57;89.54;100800.09;690879;28;1488;-54
2021/08/03 00:02:45;;;;;;;7.15;6.43;;;;;;;10.57;89.69;100799.22;691072;28;1561;-52
2021/08/03 00:03:08;;;;;;;7.95;6.60;;;;;;;10.55;89.93;100796.63;691869;28;1658;-54
2021/08/03 00:03:29;;;;;;;8.10;6.38;;;;;;;10.55;90.03;100801.00;691557;28;4364;-53
2021/08/03 00:04:09;;;;;;;7.78;6.40;;;;;;;10.55;89.91;100799.22;693831;28;1272;-50
2021/08/03 00:04:38;;;;;;;8.40;6.70;;;;;;;10.59;89.40;100796.59;693214;28;2758;-52
2021/08/03 00:04:59;;;;;;;7.57;6.45;;;;;;;10.65;89.40;100794.84;692853;28;2087;-50
2021/08/03 00:05:23;;;;;;;7.57;6.40;;;;;;;10.73;89.31;100798.31;694414;28;2111;-51
2021/08/03 00:05:48;;;;;;;7.88;6.53;;;;;;;10.81;88.47;100795.66;693870;28;1594;-52
2021/08/03 00:06:12;;;;;;;7.80;5.95;;;;;;;10.89;88.33;100796.50;693501;28;1574;-50
2021/08/03 00:06:39;;;;;;;7.97;6.40;;;;;;;10.98;87.59;100799.94;693704;28;4793;-52
2021/08/03 00:07:01;;;;;;;7.20;5.95;;;;;;;11.00;87.73;100799.06;690721;28;1480;-50
2021/08/03 00:07:22;;;;;;;7.43;5.80;;;;;;;10.97;87.57;100795.63;691477;28;3747;-50
2021/08/03 00:07:45;;;;;;;7.57;6.15;;;;;;;10.93;88.05;100792.13;690973;28;1961;-50
2021/08/03 00:08:15;;;;;;;8.23;6.30;;;;;;;10.89;88.20;100793.03;691807;28;1363;-54
2021/08/03 00:08:43;;;;;;;8.20;6.00;;;;;;;10.90;88.09;100793.00;690673;28;1274;-49
2021/08/03 00:09:03;;;;;;;7.60;6.10;;;;;;;10.92;88.12;100800.00;690317;28;1521;-50
2021/08/03 00:09:25;;;;;;;8.35;6.10;;;;;;;10.92;88.09;100789.53;689805;28;4390;-51
2021/08/03 00:09:46;;;;;;;8.27;6.18;;;;;;;10.92;88.28;100795.63;688923;28;1583;-52
2021/08/03 00:10:08;;;;;;;9.23;6.28;;;;;;;10.89;88.07;100796.50;687820;28;3822;-49
2021/08/03 00:10:29;;;;;;;8.68;6.30;;;;;;;10.90;88.01;100798.25;689056;28;1669;-52
2021/08/03 00:10:51;;;;;;;7.30;5.90;;;;;;;10.92;88.30;100797.38;686716;28;1411;-53
2021/08/03 00:11:12;;;;;;;7.78;6.30;;;;;;;10.88;88.38;100799.13;688108;28;1354;-54
2021/08/03 00:11:32;;;;;;;8.85;6.40;;;;;;;10.81;88.78;100800.03;688586;28;1786;-51
2021/08/03 00:11:54;;;;;;;8.75;6.40;;;;;;;10.72;88.62;100798.31;690792;28;1658;-53
2021/08/03 00:12:16;;;;;;;8.25;6.68;;;;;;;10.65;89.17;100791.38;691107;28;1945;-55
2021/08/03 00:12:37;;;;;;;8.07;6.43;;;;;;;10.59;88.98;100791.38;690972;28;4849;-53
2021/08/03 00:13:00;;;;;;;7.95;6.40;;;;;;;10.60;88.75;100793.13;692102;28;3734;-54
2021/08/03 00:13:21;;;;;;;7.88;6.32;;;;;;;10.65;89.22;100791.38;691468;28;4124;-49
2021/08/03 00:13:42;;;;;;;8.20;6.32;;;;;;;10.62;89.57;100787.03;689550;28;1619;-51
2021/08/03 00:14:03;;;;;;;8.30;6.27;;;;;;;10.62;88.95;100792.25;690275;28;1466;-54
2021/08/03 00:14:24;;;;;;;8.10;6.15;;;;;;;10.69;88.75;100793.97;691700;28;1616;-53
2021/08/03 00:14:53;;;;;;;7.90;6.18;;;;;;;10.75;88.36;100786.97;692430;28;1321;-50
2021/08/03 00:15:13;;;;;;;7.93;6.25;;;;;;;10.75;88.76;100792.22;691890;28;1479;-51
2021/08/03 00:15:34;;;;;;;7.90;5.90;;;;;;;10.77;88.61;100793.06;691803;28;4447;-54
2021/08/03 00:15:57;;;;;;;8.63;6.03;;;;;;;10.81;88.43;100787.81;691014;28;4189;-51
2021/08/03 00:16:19;;;;;;;8.13;5.95;;;;;;;10.85;88.16;100789.53;689839;28;3290;-52
2021/08/03 00:16:42;;;;;;;8.07;5.95;;;;;;;10.86;88.11;100793.03;691574;28;1385;-52
2021/08/03 00:17:03;;;;;;;7.70;5.95;;;;;;;10.88;88.04;100791.28;690439;28;1817;-51
2021/08/03 00:17:25;;;;;;;7.78;5.78;;;;;;;10.89;87.46;100791.25;689999;28;1551;-54
2021/08/03 00:17:46;;;;;;;8.45;5.80;;;;;;;10.86;87.22;100791.28;691550;28;1747;-54
2021/08/03 00:18:07;;;;;;;8.88;5.78;;;;;;;10.86;87.55;100791.28;690560;28;1591;-54
2021/08/03 00:18:29;;;;;;;7.93;6.20;;;;;;;10.84;88.40;100790.44;692181;28;4551;-52
2021/08/03 00:18:50;;;;;;;7.38;6.30;;;;;;;10.80;88.07;100791.31;692980;28;3690;-52
2021/08/03 00:19:10;;;;;;;7.20;6.03;;;;;;;10.79;87.54;100786.97;692572;28;1439;-53
2021/08/03 00:19:31;;;;;;;7.60;5.93;;;;;;;10.83;88.09;100787.81;693722;28;1611;-54
2021/08/03 00:19:52;;;;;;;7.40;5.75;;;;;;;10.86;87.97;100786.06;694243;28;1575;-55
2021/08/03 00:20:12;;;;;;;6.95;5.40;;;;;;;10.93;87.33;100786.91;694035;28;1694;-50
2021/08/03 00:20:35;;;;;;;6.70;5.43;;;;;;;11.03;86.61;100785.13;693559;28;1712;-51
2021/08/03 00:20:57;;;;;;;7.68;5.45;;;;;;;11.05;86.99;100791.22;693417;28;1483;-50
2021/08/03 00:21:19;;;;;;;7.55;5.78;;;;;;;11.01;87.48;100789.50;693930;28;4508;-52
2021/08/03 00:21:39;;;;;;;7.13;5.80;;;;;;;11.02;87.17;100792.09;695220;28;1409;-52
2021/08/03 00:22:00;;;;;;;7.80;5.60;;;;;;;11.03;86.92;100783.34;695782;28;4270;-51
2021/08/03 00:22:23;;;;;;;7.40;5.40;;;;;;;11.07;86.44;100792.06;696067;28;1493;-52
2021/08/03 00:22:44;;;;;;;8.15;5.82;;;;;;;11.11;86.63;100785.94;696814;28;1509;-52
2021/08/03 00:23:05;;;;;;;7.63;5.70;;;;;;;11.08;86.46;100788.59;695672;28;980;-52
2021/08/03 00:23:26;;;;;;;7.03;5.60;;;;;;;11.03;86.84;100792.97;695646;28;1285;-53
2021/08/03 00:23:47;;;;;;;7.30;5.68;;;;;;;11.01;87.42;100786.88;693910;28;2241;-52
2021/08/03 00:24:07;;;;;;;7.40;5.70;;;;;;;10.94;87.48;100790.38;694023;28;3644;-52
2021/08/03 00:24:28;;;;;;;7.97;5.90;;;;;;;10.91;87.45;100793.91;694149;28;4465;-52
2021/08/03 00:24:50;;;;;;;7.55;5.90;;;;;;;10.86;87.73;100793.03;693693;28;4910;-53
2021/08/03 00:25:11;;;;;;;7.82;6.00;;;;;;;10.85;87.79;100789.53;692888;28;1743;-50
2021/08/03 00:25:31;;;;;;;8.05;6.10;;;;;;;10.82;87.76;100784.31;693064;28;1531;-51
2021/08/03 00:25:53;;;;;;;10.75;6.40;;;;;;;10.78;88.42;100787.81;694038;28;1817;-53
2021/08/03 00:26:15;;;;;;;7.53;6.10;;;;;;;10.72;88.08;100787.88;694507;28;2101;-50
2021/08/03 00:26:37;;;;;;;7.93;5.72;;;;;;;10.82;87.58;100792.16;693473;28;1453;-51
2021/08/03 00:26:58;;;;;;;7.47;5.82;;;;;;;10.84;88.29;100792.16;694082;28;4045;-52
2021/08/03 00:27:19;;;;;;;7.63;6.00;;;;;;;10.82;88.03;100788.69;693489;28;4453;-50
2021/08/03 00:27:42;;;;;;;7.65;5.82;;;;;;;10.86;88.00;100785.19;693516;28;3768;-52
2021/08/03 00:28:02;;;;;;;7.28;5.75;;;;;;;10.90;87.62;100782.56;692891;28;1317;-50
2021/08/03 00:28:23;;;;;;;8.27;5.95;;;;;;;10.94;87.58;100782.53;694561;28;1598;-54
2021/08/03 00:28:49;;;;;;;7.38;6.00;;;;;;;10.94;87.60;100788.66;692841;28;1497;-53
2021/08/03 00:29:09;;;;;;;7.60;6.07;;;;;;;10.95;87.13;100781.66;693573;28;1445;-52
2021/08/03 00:29:30;;;;;;;7.20;5.88;;;;;;;10.97;87.17;100787.78;694014;28;1499;-54
2021/08/03 00:29:50;;;;;;;8.13;5.93;;;;;;;10.97;87.07;100790.38;692591;28;3892;-51
2021/08/03 00:30:11;;;;;;;7.53;5.63;;;;;;;11.00;86.81;100786.00;692509;28;3933;-50
2021/08/03 00:30:32;;;;;;;7.65;5.60;;;;;;;11.04;86.57;100786.84;691488;28;4480;-51
2021/08/03 00:30:52;;;;;;;8.25;5.70;;;;;;;11.03;86.79;100792.97;692550;28;1512;-53
2021/08/03 00:31:16;;;;;;;8.43;6.17;;;;;;;10.96;86.71;100793.88;692069;28;1843;-51
2021/08/03 00:31:36;;;;;;;7.05;5.75;;;;;;;10.96;86.85;100793.88;692353;28;1641;-51
2021/08/03 00:31:59;;;;;;;7.35;5.63;;;;;;;10.97;87.15;100790.38;692382;28;1489;-53
2021/08/03 00:32:19;;;;;;;7.53;5.70;;;;;;;10.95;87.22;100789.50;691567;28;2002;-51
2021/08/03 00:32:40;;;;;;;7.97;5.80;;;;;;;10.95;87.16;100794.75;688306;28;3951;-52
2021/08/03 00:33:01;;;;;;;7.80;5.70;;;;;;;10.95;87.39;100790.41;689984;28;4352;-51
2021/08/03 00:33:21;;;;;;;7.60;6.00;;;;;;;10.92;87.50;100787.78;690663;28;4411;-54
2021/08/03 00:33:48;;;;;;;7.70;5.85;;;;;;;10.89;87.48;100793.88;688185;28;1355;-53
2021/08/03 00:34:08;;;;;;;7.57;6.10;;;;;;;10.86;87.46;100801.75;689782;28;1486;-53
2021/08/03 00:34:29;;;;;;;7.72;5.80;;;;;;;10.82;87.38;100794.78;690872;28;1627;-50
2021/08/03 00:34:50;;;;;;;8.97;5.87;;;;;;;10.81;87.41;100793.03;689583;28;1535;-54
2021/08/03 00:35:10;;;;;;;7.43;6.10;;;;;;;10.75;87.66;100794.81;686982;28;1590;-50
2021/08/03 00:35:31;;;;;;;7.47;6.00;;;;;;;10.68;88.01;100793.97;685129;28;3806;-54
2021/08/03 00:35:52;;;;;;;8.20;6.22;;;;;;;10.61;88.52;100790.50;686508;28;1521;-51
2021/08/03 00:36:13;;;;;;;8.85;6.68;;;;;;;10.56;89.00;100790.53;680523;28;4326;-50
2021/08/03 00:36:34;;;;;;;7.47;6.38;;;;;;;10.49;89.33;100795.75;683316;28;4569;-55
2021/08/03 00:37:01;;;;;;;7.07;6.18;;;;;;;10.43;89.31;100799.25;683108;28;1842;-52
2021/08/03 00:37:24;;;;;;;7.65;6.20;;;;;;;10.44;89.82;100794.88;686544;28;1378;-51
2021/08/03 00:37:44;;;;;;;7.10;6.40;;;;;;;10.46;90.00;100794.03;688291;28;1347;-54
2021/08/03 00:38:05;;;;;;;7.33;6.33;;;;;;;10.47;89.85;100794.91;687873;28;1533;-51
2021/08/03 00:38:26;;;;;;;8.45;6.40;;;;;;;10.45;90.02;100792.28;690793;28;3850;-53
2021/08/03 00:38:47;;;;;;;9.13;6.57;;;;;;;10.47;89.51;100785.31;691860;28;1579;-52
2021/08/03 00:39:08;;;;;;;7.38;6.40;;;;;;;10.45;89.63;100789.66;693956;28;4065;-54
2021/08/03 00:39:30;;;;;;;7.70;6.43;;;;;;;10.47;89.37;100792.28;688652;28;4679;-54
2021/08/03 00:39:50;;;;;;;8.65;6.65;;;;;;;10.46;89.68;100791.41;686539;28;1693;-51
2021/08/03 00:40:15;;;;;;;8.82;6.63;;;;;;;10.50;89.71;100782.69;683523;28;2293;-53
2021/08/03 00:40:43;;;;;;;8.20;6.75;;;;;;;10.54;89.49;100781.81;683801;28;1708;-53
2021/08/03 00:41:11;;;;;;;8.15;6.82;;;;;;;10.55;89.51;100786.16;685639;28;1415;-49
2021/08/03 00:41:40;;;;;;;8.10;6.80;;;;;;;10.54;89.41;100778.34;689183;28;1567;-52
2021/08/03 00:42:02;;;;;;;9.13;6.80;;;;;;;10.53;89.21;100781.81;690378;28;3865;-51
2021/08/03 00:42:26;;;;;;;8.38;6.70;;;;;;;10.53;89.41;100780.06;692741;28;4469;-52
2021/08/03 00:42:47;;;;;;;7.73;6.67;;;;;;;10.48;89.53;100783.56;694776;28;1437;-54
2021/08/03 00:43:08;;;;;;;9.02;6.93;;;;;;;10.45;89.22;100770.50;693826;28;1547;-55
2021/08/03 00:43:28;;;;;;;9.17;6.70;;;;;;;10.48;89.60;100771.38;693937;28;1479;-50
2021/08/03 00:43:49;;;;;;;8.73;6.80;;;;;;;10.52;89.24;100773.13;695298;28;1524;-54
2021/08/03 00:44:10;;;;;;;7.60;6.80;;;;;;;10.55;89.35;100775.72;693951;28;3723;-54
2021/08/03 00:44:44;;;;;;;8.15;7.05;;;;;;;10.60;88.99;100773.06;690399;28;5093;-53
2021/08/03 00:45:09;;;;;;;7.50;6.55;;;;;;;10.67;88.76;100773.94;691551;28;1389;-53
2021/08/03 00:45:36;;;;;;;7.55;6.18;;;;;;;10.70;88.48;100773.91;688661;28;4956;-51
2021/08/03 00:45:56;;;;;;;7.57;6.30;;;;;;;10.70;88.49;100774.78;685777;28;1475;-50
2021/08/03 00:46:17;;;;;;;8.13;6.03;;;;;;;10.73;88.32;100776.53;687694;28;1287;-54
2021/08/03 00:46:38;;;;;;;7.80;6.18;;;;;;;10.77;87.98;100767.78;686787;28;1950;-51
2021/08/03 00:46:59;;;;;;;7.70;6.07;;;;;;;10.82;87.38;100771.25;686934;28;4039;-52
2021/08/03 00:47:20;;;;;;;7.68;6.03;;;;;;;10.84;87.64;100769.50;684322;28;4435;-52
2021/08/03 00:47:44;;;;;;;7.22;5.82;;;;;;;10.90;87.05;100769.47;685693;28;1496;-50
2021/08/03 00:48:05;;;;;;;7.07;5.80;;;;;;;10.93;87.12;100768.59;684061;28;1606;-52
2021/08/03 00:48:26;;;;;;;9.77;6.10;;;;;;;10.95;87.16;100763.34;685678;28;4443;-54
2021/08/03 00:48:47;;;;;;;8.20;5.97;;;;;;;10.92;87.57;100764.22;683706;28;1456;-53
2021/08/03 00:49:07;;;;;;;8.23;5.90;;;;;;;10.90;87.74;100766.84;684163;28;1790;-53
2021/08/03 00:49:29;;;;;;;7.35;5.75;;;;;;;10.87;87.96;100766.03;684700;28;1443;-55
2021/08/03 00:49:50;;;;;;;7.00;6.10;;;;;;;10.88;87.44;100766.00;682893;28;3932;-53
2021/08/03 00:50:11;;;;;;;7.10;6.20;;;;;;;10.90;87.34;100766.00;683413;28;3761;-52
2021/08/03 00:50:33;;;;;;;7.57;6.43;;;;;;;10.93;87.62;100765.97;684626;28;2006;-51
2021/08/03 00:50:55;;;;;;;8.55;6.50;;;;;;;10.92;88.12;100766.00;684957;28;1541;-52
2021/08/03 00:51:20;;;;;;;9.38;6.50;;;;;;;10.88;88.34;100762.50;685877;28;4938;-50
2021/08/03 00:51:41;;;;;;;8.77;6.95;;;;;;;10.81;88.59;100772.13;688428;28;1649;-52
2021/08/03 00:52:04;;;;;;;7.78;6.40;;;;;;;10.78;87.82;100772.13;688913;28;1409;-51
2021/08/03 00:52:28;;;;;;;6.80;6.10;;;;;;;10.82;87.51;100768.63;691027;28;1977;-54
2021/08/03 00:52:48;;;;;;;6.80;6.05;;;;;;;10.83;87.67;100770.38;690271;28;3719;-51
2021/08/03 00:53:10;;;;;;;7.60;6.30;;;;;;;10.81;87.98;100761.66;691882;28;1678;-53
2021/08/03 00:53:30;;;;;;;6.95;6.15;;;;;;;10.79;88.47;100773.88;692560;28;3032;-50
2021/08/03 00:53:51;;;;;;;7.43;6.30;;;;;;;10.79;87.62;100768.66;692103;28;2445;-54
2021/08/03 00:54:12;;;;;;;7.40;6.13;;;;;;;10.79;87.53;100765.19;691407;28;1511;-53
2021/08/03 00:54:33;;;;;;;7.53;6.40;;;;;;;10.82;87.97;100762.53;688859;28;4503;-51
2021/08/03 00:54:55;;;;;;;8.75;6.68;;;;;;;10.84;87.80;100768.63;692014;28;1599;-52
2021/08/03 00:55:16;;;;;;;7.55;5.82;;;;;;;10.87;87.36;100768.63;689005;28;4196;-54
2021/08/03 00:55:41;;;;;;;8.15;6.00;;;;;;;10.88;87.82;100768.63;688215;28;1533;-50
2021/08/03 00:56:02;;;;;;;8.45;6.20;;;;;;;10.85;88.22;100763.38;685773;28;4291;-53
2021/08/03 00:56:25;;;;;;;8.00;6.30;;;;;;;10.84;87.83;100766.91;684378;28;1509;-52
2021/08/03 00:56:46;;;;;;;8.48;6.45;;;;;;;10.83;87.57;100765.16;685962;28;1484;-53
2021/08/03 00:57:09;;;;;;;7.10;5.90;;;;;;;10.85;87.94;100763.38;687164;28;1289;-53
2021/08/03 00:57:32;;;;;;;7.40;6.18;;;;;;;10.88;87.63;100768.63;685190;28;4667;-50
2021/08/03 00:57:55;;;;;;;8.25;6.60;;;;;;;10.90;87.86;100764.25;684783;28;1593;-52
2021/08/03 00:58:18;;;;;;;7.95;6.50;;;;;;;10.89;88.06;100762.50;686245;28;4265;-50
2021/08/03 00:58:39;;;;;;;8.13;6.70;;;;;;;10.85;87.85;100765.13;687519;28;1805;-52
2021/08/03 00:58:59;;;;;;;7.53;6.23;;;;;;;10.84;87.81;100761.66;688671;28;1662;-50
2021/08/03 00:59:21;;;;;;;7.57;6.15;;;;;;;10.86;87.82;100765.13;689664;28;1606;-52
2021/08/03 00:59:44;;;;;;;7.50;6.30;;;;;;;10.86;88.39;100762.50;689589;28;2205;-51
2021/08/03 01:00:07;;;;;;;7.03;6.13;;;;;;;10.84;88.53;100764.28;689119;28;1316;-53
2021/08/03 01:00:28;;;;;;;6.70;5.95;;;;;;;10.85;87.79;100760.75;688281;28;5504;-50
2021/08/03 01:00:49;;;;;;;7.28;6.00;;;;;;;10.85;88.03;100758.16;686480;28;1457;-50
2021/08/03 01:01:11;;;;;;;6.60;5.90;;;;;;;10.85;87.79;100765.13;684705;28;2825;-52
2021/08/03 01:01:31;;;;;;;6.97;6.27;;;;;;;10.86;87.54;100759.03;683776;28;4227;-53
2021/08/03 01:01:53;;;;;;;7.68;6.35;;;;;;;10.84;87.86;100761.66;684175;28;1385;-51
2021/08/03 01:02:14;;;;;;;7.63;6.35;;;;;;;10.84;87.82;100761.66;681046;28;2327;-52
2021/08/03 01:02:35;;;;;;;7.45;6.50;;;;;;;10.82;88.30;100758.16;682091;28;1384;-53
2021/08/03 01:02:58;;;;;;;7.15;6.10;;;;;;;10.81;87.96;100763.41;684817;28;1405;-52
2021/08/03 01:03:19;;;;;;;7.22;6.05;;;;;;;10.76;87.97;100755.59;685217;28;4796;-54
2021/08/03 01:03:40;;;;;;;7.22;5.97;;;;;;;10.73;88.52;100760.84;686380;28;1833;-50
2021/08/03 01:04:00;;;;;;;7.63;6.57;;;;;;;10.68;89.24;100759.97;681405;28;4136;-51
2021/08/03 01:04:21;;;;;;;8.00;6.37;;;;;;;10.64;88.81;100753.88;681462;28;3857;-51
2021/08/03 01:04:41;;;;;;;8.18;6.55;;;;;;;10.66;89.35;100751.25;686297;28;1531;-51
2021/08/03 01:05:05;;;;;;;8.82;7.13;;;;;;;10.68;89.60;100755.63;685899;28;1429;-52
2021/08/03 01:05:34;;;;;;;8.10;7.25;;;;;;;10.68;89.62;100755.63;685382;28;1788;-54
2021/08/03 01:06:06;;;;;;;7.68;6.88;;;;;;;10.70;88.86;100751.25;685191;28;1385;-51
2021/08/03 01:06:36;;;;;;;8.13;6.80;;;;;;;10.74;88.82;100749.50;686905;28;4502;-50
2021/08/03 01:07:12;;;;;;;8.15;6.20;;;;;;;10.78;88.74;100751.22;689526;28;2505;-52
2021/08/03 01:07:37;;;;;;;8.43;6.78;;;;;;;10.77;88.99;100754.69;686554;28;2294;-51
2021/08/03 01:08:17;;;;;;;8.02;6.43;;;;;;;10.83;88.92;100751.22;692034;28;1369;-50
2021/08/03 01:09:04;;;;;;;8.63;6.88;;;;;;;10.83;88.39;100754.69;689593;28;1501;-52
2021/08/03 01:09:44;;;;;;;7.60;5.85;;;;;;;10.98;86.83;100747.63;688772;28;4850;-50
2021/08/03 01:10:08;;;;;;;7.63;6.40;;;;;;;11.02;86.92;100750.25;685163;28;2041;-52
2021/08/03 01:10:51;;;;;;;8.68;6.50;;;;;;;11.03;87.10;100751.97;687576;28;1297;-51
2021/08/03 01:11:17;;;;;;;8.38;6.80;;;;;;;11.02;87.02;100759.81;688375;28;1270;-50
2021/08/03 01:11:47;;;;;;;9.90;6.97;;;;;;;10.99;87.29;100754.59;685874;28;2078;-52
2021/08/03 01:12:16;;;;;;;7.63;6.65;;;;;;;11.02;87.17;100754.59;687977;28;1428;-53
2021/08/03 01:12:51;;;;;;;8.40;6.10;;;;;;;11.03;87.19;100751.97;687634;28;5050;-51
2021/08/03 01:13:30;;;;;;;8.05;6.47;;;;;;;11.08;87.19;100758.03;691339;28;1584;-50
2021/08/03 01:13:54;;;;;;;7.32;6.10;;;;;;;11.12;86.48;100751.06;692466;28;1587;-52
2021/08/03 01:14:33;;;;;;;6.93;6.10;;;;;;;11.12;86.87;100756.28;692839;28;1409;-49
2021/08/03 01:15:00;;;;;;;7.82;6.80;;;;;;;11.07;88.11;100755.44;692404;28;1364;-54
2021/08/03 01:15:27;;;;;;;8.27;6.65;;;;;;;11.01;88.09;100751.13;691657;28;4484;-51
2021/08/03 01:15:53;;;;;;;8.40;6.60;;;;;;;10.90;88.81;100759.00;690590;28;1504;-56
2021/08/03 01:16:37;;;;;;;7.97;6.57;;;;;;;10.79;89.31;100763.44;691833;28;1513;-54
2021/08/03 01:17:42;;;;;;;8.30;7.10;;;;;;;10.71;89.57;100752.97;685838;28;1571;-52
2021/08/03 01:18:13;;;;;;;9.70;7.07;;;;;;;10.70;90.20;100751.25;683339;28;3727;-51
2021/08/03 01:18:37;;;;;;;9.55;6.95;;;;;;;10.68;90.16;100762.59;683183;28;4449;-52
2021/08/03 01:19:42;;;;;;;9.55;7.22;;;;;;;10.65;89.94;100752.16;691656;28;1698;-51
2021/08/03 01:20:06;;;;;;;8.30;6.63;;;;;;;10.74;89.33;100752.09;684794;28;1521;-49
2021/08/03 01:20:31;;;;;;;7.82;6.53;;;;;;;10.79;89.15;100750.34;685645;28;1722;-53
2021/08/03 01:21:18;;;;;;;8.65;6.90;;;;;;;10.80;89.06;100754.72;685320;28;4034;-49
2021/08/03 01:21:47;;;;;;;8.02;6.57;;;;;;;10.85;89.00;100752.06;690090;28;5274;-54
2021/08/03 01:22:33;;;;;;;7.45;6.43;;;;;;;10.89;88.78;100765.09;688431;28;1574;-51
2021/08/03 01:23:18;;;;;;;7.85;6.25;;;;;;;10.93;88.50;100746.81;688489;28;1363;-52
2021/08/03 01:24:23;;;;;;;8.70;6.65;;;;;;;10.87;88.99;100753.81;686592;28;4165;-51
2021/08/03 01:25:18;;;;;;;9.68;7.00;;;;;;;10.75;89.37;100755.59;680320;28;5076;-50
2021/08/03 01:26:00;;;;;;;9.48;7.03;;;;;;;10.69;89.52;100759.13;686441;28;2059;-50
2021/08/03 01:26:48;;;;;;;8.43;7.10;;;;;;;10.62;90.50;100763.50;685593;28;2282;-53
2021/08/03 01:27:30;;;;;;;9.13;7.45;;;;;;;10.54;91.05;100757.41;688755;28;3904;-52
2021/08/03 01:28:31;;;;;;;8.63;7.72;;;;;;;10.51;90.81;100758.28;690635;28;4977;-54
2021/08/03 01:28:55;;;;;;;11.35;7.68;;;;;;;10.50;90.93;100759.16;690618;28;1448;-53
2021/08/03 01:29:20;;;;;;;9.48;7.20;;;;;;;10.50;91.53;100759.16;690212;28;3867;-53
2021/08/03 01:29:43;;;;;;;10.18;7.10;;;;;;;10.49;91.46;100756.56;689856;28;4230;-53
2021/08/03 01:30:05;;;;;;;8.52;7.30;;;;;;;10.47;91.40;100751.34;691017;28;1379;-51
2021/08/03 01:30:25;;;;;;;9.27;7.45;;;;;;;10.47;91.64;100753.09;691853;28;4449;-53
2021/08/03 01:30:52;;;;;;;9.95;7.60;;;;;;;10.45;91.66;100753.06;691667;28;1392;-54
2021/08/03 01:31:20;;;;;;;8.82;7.90;;;;;;;10.46;91.97;100760.03;691481;28;1823;-50
2021/08/03 01:31:45;;;;;;;9.15;7.70;;;;;;;10.49;91.05;100756.56;691247;28;1780;-51
2021/08/03 01:32:10;;;;;;;8.57;6.93;;;;;;;10.53;90.88;100756.53;686520;28;4000;-55
2021/08/03 01:32:34;;;;;;;8.70;7.43;;;;;;;10.55;90.29;100751.31;689734;28;4502;-52
2021/08/03 01:32:55;;;;;;;8.75;7.53;;;;;;;10.60;90.06;100756.53;689824;28;1583;-53
2021/08/03 01:33:21;;;;;;;8.77;7.25;;;;;;;10.64;90.46;100759.13;689492;28;4349;-52
2021/08/03 01:33:48;;;;;;;9.07;7.60;;;;;;;10.67;90.70;100758.25;688181;28;2150;-51
2021/08/03 01:34:11;;;;;;;9.65;7.72;;;;;;;10.69;90.08;100754.75;689032;28;1472;-52
2021/08/03 01:34:36;;;;;;;9.25;7.15;;;;;;;10.69;89.91;100751.28;688952;28;1608;-53
2021/08/03 01:35:00;;;;;;;8.48;6.90;;;;;;;10.64;90.56;100760.88;688665;28;4090;-53
2021/08/03 01:35:22;;;;;;;8.20;7.15;;;;;;;10.60;90.31;100757.38;688793;28;3794;-51
2021/08/03 01:35:44;;;;;;;8.70;7.40;;;;;;;10.57;90.16;100758.25;686098;28;1376;-53
2021/08/03 01:36:07;;;;;;;8.55;7.10;;;;;;;10.54;90.75;100758.28;689072;28;1749;-53
2021/08/03 01:36:31;;;;;;;8.65;7.32;;;;;;;10.54;91.61;100757.41;688305;28;4439;-51
2021/08/03 01:36:55;;;;;;;9.00;7.28;;;;;;;10.54;91.37;100755.66;689236;28;1327;-50
2021/08/03 01:37:19;;;;;;;8.70;7.40;;;;;;;10.52;91.27;100760.03;691469;28;1447;-50
2021/08/03 01:37:40;;;;;;;9.20;7.60;;;;;;;10.52;90.95;100752.19;694169;28;2005;-51
2021/08/03 01:38:07;;;;;;;8.95;7.32;;;;;;;10.57;90.50;100757.41;693338;28;4280;-53
2021/08/03 01:38:30;;;;;;;8.60;7.43;;;;;;;10.61;90.57;100758.28;692377;28;3309;-55
2021/08/03 01:38:53;;;;;;;8.35;7.50;;;;;;;10.63;90.94;100752.13;692139;28;1679;-51
2021/08/03 01:39:16;;;;;;;9.18;7.60;;;;;;;10.65;90.74;100749.53;689255;28;1531;-53
2021/08/03 01:39:39;;;;;;;7.72;6.88;;;;;;;10.68;90.28;100755.63;688758;28;4843;-53
2021/08/03 01:40:12;;;;;;;8.18;6.88;;;;;;;10.74;90.30;100754.72;687972;28;1634;-54
2021/08/03 01:40:35;;;;;;;8.15;6.90;;;;;;;10.76;89.87;100755.59;689451;28;1222;-51
2021/08/03 01:41:02;;;;;;;8.45;6.82;;;;;;;10.75;90.13;100753.84;692668;28;1633;-53
2021/08/03 01:41:26;;;;;;;8.27;7.13;;;;;;;10.74;90.43;100749.50;695348;28;3803;-51
2021/08/03 01:41:51;;;;;;;9.18;7.68;;;;;;;10.71;90.34;100754.72;692214;28;2182;-50
2021/08/03 01:42:13;;;;;;;10.40;7.10;;;;;;;10.68;90.64;100749.53;692151;28;1268;-55
2021/08/03 01:42:38;;;;;;;8.48;7.20;;;;;;;10.68;90.51;100750.38;691551;28;4654;-54
2021/08/03 01:43:01;;;;;;;8.18;7.30;;;;;;;10.70;90.45;100753.00;689084;28;1594;-51
2021/08/03 01:43:22;;;;;;;9.23;7.43;;;;;;;10.69;90.57;100754.75;685147;28;1286;-52
2021/08/03 01:43:46;;;;;;;10.48;7.88;;;;;;;10.68;90.59;100750.38;687598;28;4075;-50
2021/08/03 01:44:11;;;;;;;10.02;7.88;;;;;;;10.69;90.46;100753.88;690622;28;1585;-54
2021/08/03 01:44:36;;;;;;;8.77;7.28;;;;;;;10.73;89.89;100747.78;688535;28;1515;-53
2021/08/03 01:45:01;;;;;;;9.52;7.40;;;;;;;10.77;90.17;100746.84;688959;28;1603;-53
2021/08/03 01:45:23;;;;;;;8.23;7.40;;;;;;;10.82;89.99;100752.09;686895;28;4489;-52
2021/08/03 01:45:50;;;;;;;9.30;7.55;;;;;;;10.87;90.13;100745.09;688220;28;1575;-51
2021/08/03 01:46:15;;;;;;;9.48;7.70;;;;;;;10.87;90.06;100745.09;688535;28;1393;-52
2021/08/03 01:46:37;;;;;;;8.60;7.63;;;;;;;10.85;89.50;100744.22;688197;28;3507;-51
2021/08/03 01:47:01;;;;;;;8.65;7.38;;;;;;;10.85;90.08;100742.47;691108;28;1496;-53
2021/08/03 01:47:24;;;;;;;8.82;7.47;;;;;;;10.85;90.35;100742.47;688414;28;1586;-51
2021/08/03 01:47:46;;;;;;;9.55;7.65;;;;;;;10.86;89.84;100748.56;688442;28;1428;-52
2021/08/03 01:48:09;;;;;;;7.95;7.15;;;;;;;10.88;89.47;100739.84;685820;28;1452;-51
2021/08/03 01:48:33;;;;;;;8.00;7.03;;;;;;;10.94;89.47;100746.78;688596;28;4573;-52
2021/08/03 01:48:59;;;;;;;8.52;7.05;;;;;;;10.95;90.54;100743.31;686006;28;1710;-53
2021/08/03 01:49:22;;;;;;;9.23;7.82;;;;;;;10.96;90.07;100746.78;686130;28;3921;-51
2021/08/03 01:49:46;;;;;;;9.00;7.50;;;;;;;10.97;89.80;100748.53;685819;28;1757;-53
2021/08/03 01:50:10;;;;;;;9.55;7.80;;;;;;;10.98;89.57;100739.78;684316;28;1499;-54
2021/08/03 01:50:33;;;;;;;8.65;7.35;;;;;;;10.99;89.72;100738.91;685524;28;1389;-52
2021/08/03 01:50:58;;;;;;;9.32;7.75;;;;;;;10.95;89.75;100740.69;686515;28;1280;-53
2021/08/03 01:51:23;;;;;;;9.70;7.63;;;;;;;10.96;90.04;100741.56;686769;28;4418;-52
2021/08/03 01:51:46;;;;;;;10.63;7.60;;;;;;;10.94;89.90;100732.84;684630;28;2163;-51
2021/08/03 01:52:07;;;;;;;11.20;7.70;;;;;;;10.96;89.41;100737.19;684572;28;3392;-51
2021/08/03 01:52:31;;;;;;;10.40;7.65;;;;;;;10.95;90.33;100739.81;684008;28;1915;-50
2021/08/03 01:52:56;;;;;;;9.57;7.88;;;;;;;10.93;90.05;100731.13;682743;28;1478;-50
2021/08/03 01:53:23;;;;;;;9.40;8.10;;;;;;;10.88;90.13;100737.25;680856;29;1300;-50
2021/08/03 01:53:45;;;;;;;9.43;7.80;;;;;;;10.87;89.84;100740.72;683614;28;3522;-50
2021/08/03 01:54:06;;;;;;;9.15;7.68;;;;;;;10.87;89.62;100737.25;680650;28;1315;-52
2021/08/03 01:54:27;;;;;;;9.65;7.65;;;;;;;10.88;89.23;100737.25;682403;28;4549;-51
2021/08/03 01:54:49;;;;;;;10.15;7.95;;;;;;;10.90;89.93;100735.47;683484;28;3828;-54
2021/08/03 01:55:13;;;;;;;10.35;8.10;;;;;;;10.89;89.72;100736.34;682849;28;4530;-51
2021/08/03 01:55:36;;;;;;;9.65;7.93;;;;;;;10.89;89.03;100741.56;685094;28;1544;-51
2021/08/03 01:56:04;;;;;;;10.18;7.10;;;;;;;10.99;88.39;100741.53;687535;28;1536;-52
2021/08/03 01:56:25;;;;;;;9.32;7.00;;;;;;;11.03;88.57;100740.63;685852;28;1738;-54
2021/08/03 01:56:48;;;;;;;7.80;6.90;;;;;;;11.06;88.47;100732.78;685485;28;1500;-53
2021/08/03 01:57:09;;;;;;;8.70;7.30;;;;;;;11.07;88.58;100739.75;683416;28;1644;-53